Time;durP1;ratioP1;P1;durP2;ratioP2;P2;SDS_P1;SDS_P2;PMS_P1;PMS_P2;Temp;Humidity;BMP_temperature;BMP_pressure;BME280_temperature;BME280_humidity;BME280_pressure;Samples;Min_cycle;Max_cycle;Signal;HPM_P1;HPM_P2
2022/02/20 00:01:30;;;;;;;30.63;18.60;;;;;;;8.22;52.16;100335.16;5047728;28;20040;-22
2022/02/20 00:03:56;;;;;;;29.95;19.67;;;;;;;8.13;52.26;100337.16;5047824;28;20033;-22
2022/02/20 00:06:21;;;;;;;36.83;20.08;;;;;;;7.38;54.86;100336.03;5048069;28;20040;-22
2022/02/20 00:08:47;;;;;;;36.50;20.30;;;;;;;6.44;57.54;100343.00;5047612;28;20036;-22
2022/02/20 00:11:12;;;;;;;33.63;18.75;;;;;;;6.34;59.57;100363.66;5047307;28;20057;-21
2022/02/20 00:13:37;;;;;;;34.55;18.13;;;;;;;6.26;59.82;100362.94;5047574;28;20029;-22
2022/02/20 00:16:03;;;;;;;25.10;15.50;;;;;;;6.50;58.76;100362.63;5047377;28;20021;-21
2022/02/20 00:18:29;;;;;;;27.33;16.45;;;;;;;6.39;59.01;100363.09;5047767;28;20501;-22
2022/02/20 00:20:54;;;;;;;29.60;15.50;;;;;;;5.81;60.70;100368.16;5047639;28;20037;-21
2022/02/20 00:23:20;;;;;;;33.85;17.60;;;;;;;6.20;59.13;100373.22;5047594;28;20559;-22
2022/02/20 00:25:45;;;;;;;33.70;18.33;;;;;;;5.97;59.53;100335.44;5047283;28;20033;-21
2022/02/20 00:28:12;;;;;;;25.67;15.98;;;;;;;5.02;64.27;100326.97;5029618;28;20119;-22
2022/02/20 00:30:37;;;;;;;24.55;12.52;;;;;;;4.52;66.12;100311.63;5047187;28;20037;-21
2022/02/20 00:33:03;;;;;;;18.55;10.98;;;;;;;5.15;65.04;100336.97;5028897;28;20455;-22
2022/02/20 00:35:29;;;;;;;18.90;10.98;;;;;;;4.98;64.99;100335.44;5029488;28;20120;-21
2022/02/20 00:37:54;;;;;;;21.63;11.98;;;;;;;5.66;61.90;100338.19;5047302;28;20027;-21
2022/02/20 00:40:20;;;;;;;21.15;10.43;;;;;;;6.04;60.01;100347.75;5047123;28;20025;-21
2022/02/20 00:42:46;;;;;;;17.83;11.57;;;;;;;5.58;61.83;100353.16;5047052;28;20021;-21
2022/02/20 00:45:11;;;;;;;22.42;12.68;;;;;;;5.83;60.88;100339.69;5047303;28;20025;-22
2022/02/20 00:47:37;;;;;;;21.23;12.75;;;;;;;5.81;60.43;100373.44;5047197;28;20488;-22
2022/02/20 00:50:02;;;;;;;23.23;12.45;;;;;;;5.57;61.05;100367.38;5047402;28;20039;-21
2022/02/20 00:52:28;;;;;;;22.65;13.55;;;;;;;5.67;61.29;100377.69;5047078;28;20437;-21
2022/02/20 00:54:53;;;;;;;28.42;14.25;;;;;;;5.62;61.87;100361.56;5046723;28;20485;-22
2022/02/20 00:57:21;;;;;;;24.83;15.20;;;;;;;5.93;59.82;100366.72;5047261;28;20025;-22
2022/02/20 00:59:46;;;;;;;26.52;15.35;;;;;;;5.61;61.62;100362.53;5047105;28;20040;-22
2022/02/20 01:02:12;;;;;;;26.20;15.45;;;;;;;5.38;62.53;100347.53;5047041;28;20691;-21
2022/02/20 01:04:37;;;;;;;25.55;15.50;;;;;;;5.98;60.03;100361.72;5046642;28;20059;-23
2022/02/20 01:07:03;;;;;;;29.13;17.52;;;;;;;6.34;58.78;100365.47;5047123;28;20033;-21
2022/02/20 01:09:28;;;;;;;28.92;18.05;;;;;;;5.62;61.05;100362.38;5046664;28;20108;-21
2022/02/20 01:11:54;;;;;;;29.25;18.02;;;;;;;5.27;63.05;100349.75;5046824;28;20406;-22
2022/02/20 01:14:19;;;;;;;26.45;14.63;;;;;;;4.65;64.90;100343.56;5046632;28;20036;-22
2022/02/20 01:16:45;;;;;;;30.48;16.42;;;;;;;4.77;65.04;100336.88;5046613;28;20036;-21
2022/02/20 01:19:10;;;;;;;34.60;18.85;;;;;;;5.46;62.71;100338.72;5046932;28;20842;-21
2022/02/20 01:21:36;;;;;;;29.95;16.95;;;;;;;5.36;62.16;100348.72;5046723;28;20492;-21
2022/02/20 01:24:01;;;;;;;28.85;17.30;;;;;;;4.59;65.73;100341.59;5046471;28;20037;-22
2022/02/20 01:26:27;;;;;;;33.58;18.38;;;;;;;5.08;63.98;100346.59;5028820;28;20098;-21
2022/02/20 01:28:52;;;;;;;36.05;18.63;;;;;;;5.43;62.49;100331.13;5046621;28;20061;-22
2022/02/20 01:31:17;;;;;;;34.55;20.02;;;;;;;5.46;62.14;100328.13;5046552;28;20040;-21
2022/02/20 01:33:43;;;;;;;36.40;20.98;;;;;;;5.90;61.45;100330.00;5046774;28;20799;-22
2022/02/20 01:36:08;;;;;;;34.33;21.17;;;;;;;5.97;59.75;100320.38;5046643;28;20037;-23
2022/02/20 01:38:34;;;;;;;35.22;21.20;;;;;;;5.92;60.30;100319.25;5046127;28;20033;-22
2022/02/20 01:41:00;;;;;;;36.30;21.33;;;;;;;5.50;62.43;100308.25;5046834;28;20059;-21
2022/02/20 01:43:25;;;;;;;37.50;21.48;;;;;;;6.14;60.60;100315.72;5046426;28;20025;-22
2022/02/20 01:45:51;;;;;;;41.08;21.77;;;;;;;6.33;59.77;100313.50;5049314;28;20025;-22
2022/02/20 01:48:16;;;;;;;673.88;196.75;;;;;;;6.58;57.69;100301.59;5050503;28;20865;-21
2022/02/20 01:50:42;;;;;;;360.17;104.03;;;;;;;6.75;58.00;100307.47;5050471;28;20417;-22
2022/02/20 01:53:08;;;;;;;593.38;178.13;;;;;;;6.80;57.47;100302.44;5032300;28;20082;-21
2022/02/20 01:55:34;;;;;;;131.00;45.92;;;;;;;6.86;57.58;100289.41;5050608;28;20036;-22
2022/02/20 01:57:59;;;;;;;92.28;36.80;;;;;;;6.63;57.72;100282.47;5050595;28;20033;-21
2022/02/20 02:00:25;;;;;;;133.88;46.20;;;;;;;6.44;58.83;100311.19;5050038;28;20036;-22
2022/02/20 02:02:50;;;;;;;141.15;55.63;;;;;;;6.62;57.82;100288.78;5049967;28;20546;-22
2022/02/20 02:05:16;;;;;;;340.92;121.70;;;;;;;6.78;57.76;100304.44;5050009;28;20029;-22
2022/02/20 02:07:41;;;;;;;976.53;359.05;;;;;;;6.88;56.77;100296.16;5049906;28;20537;-22
2022/02/20 02:10:07;;;;;;;826.47;262.77;;;;;;;6.96;57.16;100319.09;5049825;28;20072;-22
2022/02/20 02:12:33;;;;;;;562.17;140.30;;;;;;;7.06;57.04;100313.47;5049797;28;20049;-26
2022/02/20 02:15:00;;;;;;;602.80;155.35;;;;;;;6.61;57.72;100311.78;5050074;28;20033;-21
2022/02/20 02:17:25;;;;;;;247.15;71.43;;;;;;;5.68;61.17;100288.56;5048705;28;20056;-22
2022/02/20 02:19:51;;;;;;;106.05;39.10;;;;;;;5.64;61.96;100299.50;5049833;28;20350;-22
2022/02/20 02:22:20;;;;;;;55.50;27.50;;;;;;;5.43;63.03;100299.38;5031771;28;20139;-22
2022/02/20 02:24:46;;;;;;;51.17;25.90;;;;;;;5.19;63.00;100279.25;5049939;28;20033;-22
2022/02/20 02:27:12;;;;;;;53.60;26.58;;;;;;;5.69;62.38;100291.03;5049891;28;20467;-22
2022/02/20 02:29:38;;;;;;;52.17;28.55;;;;;;;5.57;62.99;100295.94;5049826;28;20033;-22
2022/02/20 02:32:03;;;;;;;53.40;27.55;;;;;;;5.97;61.25;100304.50;5049786;28;20488;-22
2022/02/20 02:34:30;;;;;;;47.55;26.65;;;;;;;6.33;59.50;100301.06;5049683;28;20029;-22
2022/02/20 02:36:55;;;;;;;61.22;35.28;;;;;;;6.37;59.35;100312.94;5049391;28;20020;-21
2022/02/20 02:39:20;;;;;;;57.58;33.70;;;;;;;6.78;58.33;100317.72;5049634;28;20432;-22
2022/02/20 02:41:46;;;;;;;53.35;30.38;;;;;;;6.76;57.52;100314.44;5049682;28;20040;-21
2022/02/20 02:44:11;;;;;;;49.90;29.60;;;;;;;6.78;57.73;100317.72;5049534;28;20128;-22
2022/02/20 02:46:37;;;;;;;44.72;29.02;;;;;;;6.86;57.20;100323.88;5049264;28;20083;-22
2022/02/20 02:49:04;;;;;;;43.97;26.63;;;;;;;6.72;57.65;100323.75;5049416;28;20033;-22
2022/02/20 02:51:30;;;;;;;44.60;26.95;;;;;;;6.41;58.34;100338.03;5031489;28;20032;-22
2022/02/20 02:53:55;;;;;;;48.10;29.95;;;;;;;6.19;59.51;100334.53;5049386;28;20036;-21
2022/02/20 02:56:21;;;;;;;41.85;27.23;;;;;;;6.10;59.80;100329.50;5048738;28;20060;-21
2022/02/20 02:58:47;;;;;;;48.88;26.55;;;;;;;6.12;59.56;100336.25;5048927;28;20041;-22
2022/02/20 03:01:12;;;;;;;52.67;28.08;;;;;;;6.47;59.05;100346.28;5049363;28;20527;-22
2022/02/20 03:03:38;;;;;;;55.90;29.15;;;;;;;6.08;59.59;100336.81;5049288;28;20025;-22
2022/02/20 03:06:13;;;;;;;56.30;28.60;;;;;;;6.49;58.76;100309.81;5048855;28;20624;-22
2022/02/20 03:08:39;;;;;;;57.67;26.67;;;;;;;5.71;61.03;100320.78;5049201;28;20040;-22
2022/02/20 03:11:05;;;;;;;42.55;24.05;;;;;;;6.15;59.41;100335.06;5048672;28;20091;-22
2022/02/20 03:13:33;;;;;;;45.70;23.83;;;;;;;6.51;58.86;100334.31;5031225;28;20040;-22
2022/02/20 03:15:59;;;;;;;41.78;24.48;;;;;;;6.37;57.82;100322.72;5048988;28;20036;-21
2022/02/20 03:18:26;;;;;;;43.58;26.17;;;;;;;6.47;57.81;100310.00;5030988;28;20029;-21
2022/02/20 03:20:51;;;;;;;44.72;26.23;;;;;;;6.32;59.12;100325.94;5048543;28;20699;-22
2022/02/20 03:23:17;;;;;;;42.53;26.30;;;;;;;6.35;58.93;100336.13;5048891;28;20469;-22
2022/02/20 03:25:42;;;;;;;44.92;26.08;;;;;;;5.82;59.17;100315.06;5048816;28;20028;-22
2022/02/20 03:28:08;;;;;;;47.40;26.40;;;;;;;6.14;59.64;100325.47;5030686;28;20041;-22
2022/02/20 03:30:33;;;;;;;46.95;27.20;;;;;;;5.91;59.72;100307.84;5048453;28;20028;-22
2022/02/20 03:32:59;;;;;;;45.55;26.45;;;;;;;6.07;59.62;100320.09;5048380;28;20036;-22
2022/02/20 03:35:24;;;;;;;40.95;24.33;;;;;;;5.94;60.61;100331.28;5048346;28;20025;-21
2022/02/20 03:37:50;;;;;;;36.83;22.10;;;;;;;6.30;58.55;100325.28;5048821;28;20590;-22
2022/02/20 03:40:15;;;;;;;36.53;20.67;;;;;;;5.40;61.21;100297.09;5048895;28;20075;-22
2022/02/20 03:42:41;;;;;;;31.95;19.00;;;;;;;5.00;62.95;100307.00;5048183;28;20060;-22
2022/02/20 03:45:07;;;;;;;37.28;20.98;;;;;;;4.85;63.19;100308.78;5048387;28;20036;-22
2022/02/20 03:47:33;;;;;;;38.35;22.88;;;;;;;5.03;62.50;100309.31;5048230;28;20033;-21
2022/02/20 03:49:58;;;;;;;35.90;19.10;;;;;;;4.62;63.43;100283.97;5047978;28;20487;-22
2022/02/20 03:52:24;;;;;;;30.65;19.02;;;;;;;4.89;63.08;100294.22;5048366;28;20028;-22
2022/02/20 03:54:49;;;;;;;31.20;18.15;;;;;;;5.01;62.32;100300.72;5030000;28;20499;-23
2022/02/20 03:57:14;;;;;;;33.10;19.02;;;;;;;5.28;61.60;100302.00;5048015;28;20428;-22
2022/02/20 03:59:40;;;;;;;31.48;18.63;;;;;;;5.22;61.85;100305.34;5047903;28;20386;-21
2022/02/20 04:02:06;;;;;;;32.63;19.70;;;;;;;5.27;61.47;100295.06;5047973;28;20033;-22
2022/02/20 04:04:31;;;;;;;39.22;20.83;;;;;;;5.00;63.15;100304.34;5047534;28;20476;-22
2022/02/20 04:06:57;;;;;;;33.38;20.55;;;;;;;5.22;62.35;100308.00;5047712;28;20071;-21
2022/02/20 04:09:22;;;;;;;33.63;20.63;;;;;;;5.31;62.93;100292.88;5047651;28;20032;-22
2022/02/20 04:11:48;;;;;;;34.85;19.65;;;;;;;5.27;62.25;100281.00;5047680;28;20067;-21
2022/02/20 04:14:13;;;;;;;33.83;20.25;;;;;;;4.58;64.53;100293.25;5047713;28;20508;-22
2022/02/20 04:16:38;;;;;;;32.28;18.67;;;;;;;5.07;62.45;100289.44;5047597;28;20029;-22
2022/02/20 04:19:04;;;;;;;31.83;20.10;;;;;;;5.07;62.68;100285.97;5047478;28;20036;-22
2022/02/20 04:21:29;;;;;;;33.20;18.10;;;;;;;4.83;63.28;100269.31;5047772;28;20033;-22
2022/02/20 04:23:55;;;;;;;31.27;17.77;;;;;;;3.86;65.89;100243.25;5047868;28;20510;-21
2022/02/20 04:26:20;;;;;;;27.33;18.45;;;;;;;4.18;65.76;100270.50;5047599;28;20036;-22
2022/02/20 04:28:46;;;;;;;31.25;18.58;;;;;;;4.50;64.89;100271.34;5047118;28;20424;-21
2022/02/20 04:31:11;;;;;;;31.33;18.90;;;;;;;4.80;62.80;100251.16;5047568;28;20036;-21
2022/02/20 04:33:37;;;;;;;32.00;17.75;;;;;;;4.30;65.12;100268.31;5029112;28;20383;-21
2022/02/20 04:36:03;;;;;;;31.13;18.30;;;;;;;3.80;66.89;100251.84;5047738;28;20041;-22
2022/02/20 04:38:29;;;;;;;39.05;23.67;;;;;;;3.44;69.13;100238.28;5047523;28;20029;-21
2022/02/20 04:40:54;;;;;;;32.22;19.83;;;;;;;3.62;68.69;100241.53;5047334;28;20037;-21
2022/02/20 04:43:20;;;;;;;29.92;18.77;;;;;;;4.08;66.64;100238.22;5047535;28;20036;-22
2022/02/20 04:45:45;;;;;;;51.53;26.50;;;;;;;3.76;67.84;100232.06;5047559;28;20036;-21
2022/02/20 04:48:11;;;;;;;38.70;22.98;;;;;;;4.21;66.21;100222.66;5047110;28;20033;-21
2022/02/20 04:50:36;;;;;;;38.72;22.55;;;;;;;4.70;64.57;100243.47;5047020;28;20033;-23
2022/02/20 04:53:01;;;;;;;42.22;23.67;;;;;;;4.68;64.54;100240.19;5047207;28;20503;-22
2022/02/20 04:55:27;;;;;;;36.22;22.13;;;;;;;4.45;64.85;100236.69;5029015;28;20082;-21
2022/02/20 04:57:52;;;;;;;59.45;34.25;;;;;;;4.62;65.39;100214.47;5046968;28;20029;-21
2022/02/20 05:00:18;;;;;;;47.42;27.73;;;;;;;5.06;63.22;100242.84;5029057;28;20476;-21
2022/02/20 05:02:43;;;;;;;40.10;24.50;;;;;;;4.67;64.60;100243.81;5046289;28;20028;-21
2022/02/20 05:05:10;;;;;;;37.63;22.27;;;;;;;4.38;66.09;100228.66;5047077;28;20432;-22
2022/02/20 05:07:36;;;;;;;45.03;27.35;;;;;;;4.18;66.79;100215.06;5047140;28;20111;-22
2022/02/20 05:10:01;;;;;;;44.55;25.38;;;;;;;4.75;65.51;100259.59;5046806;28;20043;-22
2022/02/20 05:12:27;;;;;;;42.42;24.55;;;;;;;5.19;63.48;100268.69;5046396;28;20080;-22
2022/02/20 05:14:52;;;;;;;44.10;26.30;;;;;;;4.95;64.06;100267.06;5046499;28;20029;-22
2022/02/20 05:17:18;;;;;;;53.25;27.02;;;;;;;4.50;66.17;100268.72;5046525;28;20039;-22
2022/02/20 05:19:43;;;;;;;55.95;31.55;;;;;;;4.59;65.47;100265.00;5046651;28;20033;-22
2022/02/20 05:22:09;;;;;;;47.83;28.15;;;;;;;4.80;65.32;100269.63;5028939;28;20036;-22
2022/02/20 05:24:34;;;;;;;56.20;34.25;;;;;;;4.72;64.79;100269.69;5046526;28;20075;-21
2022/02/20 05:27:00;;;;;;;61.97;41.88;;;;;;;4.15;67.24;100274.31;5046702;28;20087;-22
2022/02/20 05:29:25;;;;;;;74.15;49.75;;;;;;;4.07;68.60;100278.81;5046609;28;20036;-22
2022/02/20 05:31:50;;;;;;;67.82;47.42;;;;;;;4.32;67.18;100282.97;5046313;28;20033;-22
2022/02/20 05:34:16;;;;;;;71.25;48.22;;;;;;;4.35;67.22;100290.56;5046341;28;20396;-21
2022/02/20 05:36:41;;;;;;;55.13;34.47;;;;;;;4.35;67.91;100290.56;5046323;28;20036;-22
2022/02/20 05:39:07;;;;;;;58.28;34.20;;;;;;;4.88;65.41;100301.28;5046518;28;20086;-22
2022/02/20 05:41:32;;;;;;;54.75;30.90;;;;;;;5.17;64.65;100319.13;5046600;28;20040;-23
2022/02/20 05:43:58;;;;;;;59.28;33.97;;;;;;;5.36;63.50;100332.84;5046543;28;20036;-21
2022/02/20 05:46:23;;;;;;;81.97;42.45;;;;;;;4.98;65.72;100336.25;5046455;28;20037;-22
2022/02/20 05:48:49;;;;;;;55.13;31.30;;;;;;;5.02;65.84;100377.19;5045992;28;20036;-22
2022/02/20 05:51:14;;;;;;;60.67;36.92;;;;;;;4.49;66.86;100397.28;5046489;28;20044;-22
2022/02/20 05:53:40;;;;;;;43.47;28.50;;;;;;;3.86;68.41;100398.91;5028363;28;20516;-23
2022/02/20 05:56:06;;;;;;;36.00;22.65;;;;;;;3.58;69.81;100396.63;5046183;28;20112;-22
2022/02/20 05:58:32;;;;;;;30.77;19.55;;;;;;;4.06;68.38;100411.75;5046081;28;20032;-22
2022/02/20 06:00:58;;;;;;;41.97;23.80;;;;;;;4.29;68.15;100399.50;5046091;28;20021;-22
2022/02/20 06:03:23;;;;;;;37.10;19.95;;;;;;;4.68;67.13;100409.25;5046465;28;20116;-22
2022/02/20 06:05:49;;;;;;;199.02;114.07;;;;;;;4.47;67.25;100390.53;5046106;28;20032;-22
2022/02/20 06:08:14;;;;;;;141.80;81.53;;;;;;;4.54;66.66;100376.47;5046352;28;20036;-22
2022/02/20 06:10:40;;;;;;;80.03;46.08;;;;;;;5.09;65.53;100403.75;5045857;28;20041;-22
2022/02/20 06:13:05;;;;;;;56.92;27.30;;;;;;;4.97;66.35;100402.50;5046313;28;20029;-22
2022/02/20 06:15:31;;;;;;;106.57;43.17;;;;;;;4.74;68.05;100371.59;5046624;28;20481;-22
2022/02/20 06:17:56;;;;;;;46.45;26.33;;;;;;;4.65;67.59;100330.34;5045930;28;20522;-21
2022/02/20 06:20:22;;;;;;;42.45;27.33;;;;;;;5.01;67.71;100364.16;5046278;28;20116;-22
2022/02/20 06:22:47;;;;;;;43.10;25.02;;;;;;;4.81;68.67;100361.97;5045962;28;20381;-23
2022/02/20 06:25:13;;;;;;;44.65;26.33;;;;;;;4.45;70.38;100352.91;5046494;28;20040;-21
2022/02/20 06:27:38;;;;;;;37.10;23.30;;;;;;;4.26;71.17;100348.84;5046277;28;20032;-22
2022/02/20 06:30:04;;;;;;;32.30;20.52;;;;;;;4.14;72.10;100330.72;5045978;28;20040;-22
2022/02/20 06:32:30;;;;;;;31.45;18.77;;;;;;;4.90;70.18;100372.47;5047410;28;20029;-23
2022/02/20 06:34:55;;;;;;;44.40;22.83;;;;;;;5.21;68.82;100389.16;5049851;28;20033;-21
2022/02/20 06:37:21;;;;;;;47.00;26.08;;;;;;;4.77;69.74;100381.78;5049842;28;20040;-21
2022/02/20 06:39:46;;;;;;;49.38;27.33;;;;;;;4.93;68.95;100369.50;5049807;28;20481;-21
2022/02/20 06:42:12;;;;;;;47.97;28.27;;;;;;;4.43;69.95;100334.56;5049905;28;20037;-22
2022/02/20 06:44:38;;;;;;;44.25;25.77;;;;;;;4.38;71.44;100350.13;5049460;28;20029;-21
2022/02/20 06:47:04;;;;;;;57.15;30.63;;;;;;;4.50;71.67;100395.47;5031501;28;20041;-23
2022/02/20 06:49:29;;;;;;;50.55;30.13;;;;;;;4.55;71.56;100387.84;5049731;28;20392;-22
2022/02/20 06:51:55;;;;;;;50.47;29.08;;;;;;;4.93;70.46;100388.81;5049673;28;20063;-22
2022/02/20 06:54:20;;;;;;;56.00;30.63;;;;;;;5.00;70.47;100402.16;5049447;28;20021;-21
2022/02/20 06:56:45;;;;;;;49.97;26.98;;;;;;;4.99;69.04;100392.59;5031473;28;20037;-21
2022/02/20 06:59:11;;;;;;;49.30;29.02;;;;;;;5.34;67.52;100363.94;5031608;28;20468;-21
2022/02/20 07:01:36;;;;;;;53.67;28.05;;;;;;;5.64;66.63;100367.50;5049254;28;20041;-22
2022/02/20 07:04:04;;;;;;;95.90;47.13;;;;;;;5.95;65.14;100370.03;5049489;28;20080;-21
2022/02/20 07:06:30;;;;;;;106.32;48.10;;;;;;;5.43;67.27;100333.75;5049029;28;20083;-21
2022/02/20 07:08:56;;;;;;;55.17;30.70;;;;;;;5.11;69.01;100363.91;5049309;28;20070;-21
2022/02/20 07:11:21;;;;;;;53.35;28.73;;;;;;;4.80;71.00;100355.03;5048650;28;20426;-29
2022/02/20 07:13:47;;;;;;;45.95;26.67;;;;;;;4.66;72.84;100345.22;5031022;28;20033;-22
2022/02/20 07:16:13;;;;;;;43.38;25.40;;;;;;;5.11;71.56;100351.53;5030827;28;20033;-21
2022/02/20 07:18:38;;;;;;;39.05;24.70;;;;;;;5.13;71.60;100336.31;5049110;28;20393;-22
2022/02/20 07:21:03;;;;;;;40.20;25.20;;;;;;;5.68;69.30;100358.19;5031180;28;20033;-22
2022/02/20 07:23:29;;;;;;;44.95;25.95;;;;;;;6.30;67.31;100351.78;5048822;28;20025;-22
2022/02/20 07:25:54;;;;;;;41.83;26.38;;;;;;;6.70;64.77;100336.38;5048754;28;20033;-22
2022/02/20 07:28:20;;;;;;;43.83;25.90;;;;;;;6.68;64.11;100317.19;5030790;28;20025;-22
2022/02/20 07:30:45;;;;;;;39.70;24.00;;;;;;;6.52;63.86;100322.69;5048327;28;20029;-21
2022/02/20 07:33:12;;;;;;;40.60;24.70;;;;;;;6.89;63.61;100323.53;5048909;28;20024;-22
2022/02/20 07:35:38;;;;;;;41.63;24.40;;;;;;;6.61;63.50;100303.03;5048811;28;20047;-22
2022/02/20 07:38:05;;;;;;;44.90;29.17;;;;;;;6.88;62.87;100313.91;5048696;28;20036;-22
2022/02/20 07:40:30;;;;;;;55.35;33.50;;;;;;;6.93;62.83;100324.78;5048213;28;20583;-22
2022/02/20 07:42:56;;;;;;;63.25;32.67;;;;;;;6.53;64.18;100334.94;5030309;28;20024;-21
2022/02/20 07:45:23;;;;;;;99.68;49.28;;;;;;;6.36;66.27;100358.19;5048305;28;20099;-22
2022/02/20 07:47:57;;;;;;;62.70;38.78;;;;;;;6.23;66.99;100345.56;5048638;28;20021;-21
2022/02/20 07:50:24;;;;;;;75.40;38.63;;;;;;;6.33;66.75;100383.19;5048339;28;20565;-22
2022/02/20 07:52:49;;;;;;;97.45;41.92;;;;;;;6.51;65.37;100395.25;5047988;28;20029;-23
2022/02/20 07:55:16;;;;;;;96.68;40.90;;;;;;;6.44;65.63;100385.38;5030164;28;20037;-21
2022/02/20 07:57:42;;;;;;;55.88;34.25;;;;;;;6.74;64.24;100369.44;5030341;28;20560;-22
2022/02/20 08:00:08;;;;;;;100.13;55.20;;;;;;;6.91;61.90;100348.03;5048197;28;20048;-21
2022/02/20 08:02:34;;;;;;;64.55;28.80;;;;;;;6.96;60.21;100341.13;5047382;28;20025;-21
2022/02/20 08:04:59;;;;;;;461.92;99.22;;;;;;;7.31;60.15;100348.38;5047862;28;20377;-22
2022/02/20 08:07:24;;;;;;;104.95;38.40;;;;;;;7.83;58.63;100337.38;5047871;28;20451;-22
2022/02/20 08:09:51;;;;;;;99.88;50.03;;;;;;;7.82;58.38;100319.78;5047985;28;20029;-21
2022/02/20 08:12:17;;;;;;;147.90;52.38;;;;;;;8.03;56.89;100326.06;5047909;28;20090;-21
2022/02/20 08:14:43;;;;;;;134.32;58.22;;;;;;;8.18;55.51;100313.47;5047787;28;20033;-21
2022/02/20 08:17:08;;;;;;;166.85;81.47;;;;;;;8.07;55.47;100321.16;5029905;28;20071;-22
2022/02/20 08:19:34;;;;;;;121.88;57.90;;;;;;;8.26;54.88;100320.47;5030241;28;20036;-21
2022/02/20 08:21:59;;;;;;;264.23;137.52;;;;;;;8.19;54.65;100303.66;5047638;28;20825;-21
2022/02/20 08:24:25;;;;;;;86.70;48.25;;;;;;;8.36;53.72;100304.16;5047500;28;20456;-22
2022/02/20 08:26:51;;;;;;;65.18;34.15;;;;;;;8.74;52.09;100309.81;5047221;28;20044;-22
2022/02/20 08:29:21;;;;;;;139.50;71.75;;;;;;;8.90;51.99;100294.50;5047494;28;20443;-21
2022/02/20 08:31:47;;;;;;;260.15;136.75;;;;;;;8.88;51.86;100272.63;5047421;28;20108;-21
2022/02/20 08:34:12;;;;;;;154.93;82.55;;;;;;;8.88;52.02;100275.28;5013196;28;20075;-22
2022/02/20 08:36:38;;;;;;;32.85;19.85;;;;;;;9.00;52.41;100281.63;5029184;28;20033;-21
2022/02/20 08:39:04;;;;;;;32.35;18.88;;;;;;;9.07;52.09;100285.09;5047290;28;20032;-21
2022/02/20 08:41:29;;;;;;;67.07;33.88;;;;;;;9.07;51.96;100277.13;5047401;28;20553;-22
2022/02/20 08:43:55;;;;;;;70.85;32.58;;;;;;;9.21;51.71;100270.81;5028964;28;20485;-21
2022/02/20 08:46:20;;;;;;;29.85;18.33;;;;;;;9.15;51.64;100282.25;5012628;28;20040;-22
2022/02/20 08:48:46;;;;;;;28.42;17.80;;;;;;;9.22;51.28;100299.06;5047432;28;20037;-21
2022/02/20 08:51:11;;;;;;;31.10;17.50;;;;;;;9.18;51.68;100297.81;5046777;28;20037;-22
2022/02/20 08:53:38;;;;;;;44.03;19.95;;;;;;;9.17;52.77;100280.19;5028968;28;20048;-22
2022/02/20 08:56:07;;;;;;;39.03;20.77;;;;;;;9.31;51.65;100314.81;5046263;28;20033;-21
2022/02/20 08:58:33;;;;;;;31.58;18.60;;;;;;;8.82;53.64;100295.50;5029836;28;20025;-22
2022/02/20 09:01:00;;;;;;;30.92;17.70;;;;;;;9.17;53.43;100280.19;4996381;28;20564;-22
2022/02/20 09:03:26;;;;;;;28.80;18.15;;;;;;;9.50;52.10;100284.72;5046634;28;20028;-23
2022/02/20 09:05:51;;;;;;;28.08;17.83;;;;;;;9.73;50.76;100272.81;5047030;28;20028;-22
2022/02/20 09:08:17;;;;;;;40.05;22.50;;;;;;;9.65;51.10;100250.69;5028881;28;20574;-21
2022/02/20 09:10:43;;;;;;;28.88;17.35;;;;;;;9.55;52.09;100255.63;5046517;28;20481;-21
2022/02/20 09:13:08;;;;;;;30.23;16.35;;;;;;;9.75;51.64;100254.78;5046556;28;20442;-22
2022/02/20 09:15:35;;;;;;;122.03;84.57;;;;;;;10.16;50.09;100261.63;5029022;28;20049;-22
2022/02/20 09:18:03;;;;;;;125.53;51.58;;;;;;;10.42;49.82;100255.34;5046638;28;20032;-22
2022/02/20 09:20:28;;;;;;;29.17;19.20;;;;;;;10.60;48.85;100275.97;5046973;28;20075;-22
2022/02/20 09:22:54;;;;;;;26.17;17.10;;;;;;;10.47;49.81;100263.53;5028440;28;20062;-21
2022/02/20 09:25:19;;;;;;;32.75;19.80;;;;;;;10.53;51.11;100291.22;5046767;28;20033;-21
2022/02/20 09:27:45;;;;;;;27.27;18.10;;;;;;;9.91;52.42;100286.28;5046770;28;20029;-21
2022/02/20 09:30:10;;;;;;;26.73;17.23;;;;;;;10.20;50.62;100273.50;5047258;28;20052;-22
2022/02/20 09:32:36;;;;;;;26.33;16.40;;;;;;;10.23;50.68;100284.53;5046489;28;20029;-22
2022/02/20 09:35:02;;;;;;;26.55;16.25;;;;;;;9.83;51.59;100291.84;5047081;28;20033;-22
2022/02/20 09:37:28;;;;;;;28.90;17.40;;;;;;;9.78;52.06;100249.84;5028565;28;20033;-22
2022/02/20 09:39:53;;;;;;;31.00;17.55;;;;;;;10.22;51.12;100258.09;5028660;28;20042;-23
2022/02/20 09:42:19;;;;;;;31.42;19.20;;;;;;;10.41;50.60;100259.88;5046871;28;20108;-21
2022/02/20 09:44:44;;;;;;;28.17;17.67;;;;;;;10.61;50.07;100264.31;5046390;28;20049;-21
2022/02/20 09:47:13;;;;;;;28.20;19.17;;;;;;;10.58;51.70;100254.88;5028584;28;20021;-22
2022/02/20 09:49:38;;;;;;;34.63;17.40;;;;;;;11.13;49.51;100240.94;5046733;28;20040;-22
2022/02/20 09:52:04;;;;;;;35.00;25.77;;;;;;;11.34;48.18;100257.59;5028556;28;20057;-22
2022/02/20 09:54:30;;;;;;;33.22;21.83;;;;;;;11.78;48.38;100258.41;5028103;28;20029;-22
2022/02/20 09:56:56;;;;;;;29.85;19.08;;;;;;;11.64;48.43;100247.03;5028819;28;20047;-21
2022/02/20 09:59:21;;;;;;;31.73;19.08;;;;;;;11.82;47.11;100271.09;5028833;28;20033;-22
2022/02/20 10:02:09;;;;;;;33.30;20.63;;;;;;;11.84;47.23;100241.50;5028584;28;20029;-22
2022/02/20 10:04:51;;;;;;;30.77;18.40;;;;;;;12.02;46.28;100252.22;5028335;28;20060;-21
2022/02/20 10:07:35;;;;;;;25.83;15.68;;;;;;;12.02;45.17;100241.50;5033255;28;20032;-22
2022/02/20 10:10:13;;;;;;;25.85;16.85;;;;;;;12.21;43.66;100236.94;5032827;28;20036;-22
2022/02/20 10:12:39;;;;;;;26.90;15.38;;;;;;;12.33;43.11;100234.34;5048552;28;20519;-23
2022/02/20 10:15:25;;;;;;;26.63;15.55;;;;;;;12.44;44.15;100241.59;5049984;28;20071;-22
2022/02/20 10:17:55;;;;;;;27.50;16.13;;;;;;;12.60;43.70;100215.25;5032362;28;20033;-22
2022/02/20 10:20:26;;;;;;;32.38;19.67;;;;;;;12.92;42.03;100209.63;5032335;28;20041;-22
2022/02/20 10:22:52;;;;;;;29.55;16.08;;;;;;;13.08;41.52;100208.94;5049428;28;20495;-22
2022/02/20 10:25:17;;;;;;;27.08;15.82;;;;;;;12.78;42.96;100199.13;5032046;28;20108;-22
2022/02/20 10:27:51;;;;;;;24.23;17.27;;;;;;;13.29;41.32;100198.69;5032081;28;20570;-22
2022/02/20 10:30:18;;;;;;;25.02;14.00;;;;;;;13.23;41.49;100195.88;5032192;28;20037;-22
2022/02/20 10:32:52;;;;;;;23.00;14.20;;;;;;;13.16;41.00;100162.28;5031836;28;20159;-22
2022/02/20 10:35:18;;;;;;;24.20;14.60;;;;;;;13.68;41.89;100186.44;5033214;28;20098;-24
2022/02/20 10:37:44;;;;;;;24.38;14.20;;;;;;;13.84;39.18;100188.38;5049762;28;20021;-21
2022/02/20 10:40:29;;;;;;;23.90;14.48;;;;;;;13.89;39.81;100187.66;5031680;28;20098;-21
2022/02/20 10:43:00;;;;;;;21.65;12.73;;;;;;;13.95;40.67;100181.34;5032371;28;20025;-22
2022/02/20 10:45:34;;;;;;;22.80;14.45;;;;;;;14.38;39.13;100185.38;5015844;28;20491;-22
2022/02/20 10:48:01;;;;;;;24.98;16.58;;;;;;;14.54;39.69;100183.78;5031945;28;20029;-22
2022/02/20 10:50:29;;;;;;;42.65;23.35;;;;;;;14.64;40.27;100169.75;5014979;28;20112;-22
2022/02/20 10:53:05;;;;;;;20.33;12.50;;;;;;;14.40;39.14;100161.81;5014376;28;20032;-22
2022/02/20 10:55:38;;;;;;;22.45;14.38;;;;;;;14.66;39.01;100159.59;5031613;28;20416;-21
2022/02/20 10:58:12;;;;;;;22.75;12.88;;;;;;;15.12;38.17;100141.50;5049441;28;20100;-22
2022/02/20 11:00:48;;;;;;;20.63;12.15;;;;;;;15.00;37.43;100152.34;5031119;28;20501;-23
2022/02/20 11:03:14;;;;;;;19.58;11.77;;;;;;;14.96;37.96;100131.59;5014600;28;20396;-23
2022/02/20 11:05:40;;;;;;;18.30;9.85;;;;;;;14.41;38.10;100120.50;5031355;28;20055;-22
2022/02/20 11:08:06;;;;;;;17.95;10.75;;;;;;;14.83;37.80;100132.75;5031380;28;20455;-21
2022/02/20 11:10:32;;;;;;;18.10;10.90;;;;;;;14.99;37.10;100104.25;5048892;28;20119;-22